sensor_id;sensor_type;location;lat;lon;timestamp;P1;durP1;ratioP1;P2;durP2;ratioP2
17830;SDS011;9040;51.332;12.406;2022-08-18T00:01:41;15.63;;;7.20;;
17830;SDS011;9040;51.332;12.406;2022-08-18T00:04:10;11.43;;;6.93;;
17830;SDS011;9040;51.332;12.406;2022-08-18T00:06:37;12.40;;;7.17;;
17830;SDS011;9040;51.332;12.406;2022-08-18T00:09:05;9.27;;;6.63;;
17830;SDS011;9040;51.332;12.406;2022-08-18T00:11:37;11.23;;;6.40;;
17830;SDS011;9040;51.332;12.406;2022-08-18T00:14:06;13.87;;;7.33;;
17830;SDS011;9040;51.332;12.406;2022-08-18T00:16:36;11.43;;;6.20;;
17830;SDS011;9040;51.332;12.406;2022-08-18T00:19:04;8.27;;;5.60;;
17830;SDS011;9040;51.332;12.406;2022-08-18T00:21:31;15.23;;;7.07;;
17830;SDS011;9040;51.332;12.406;2022-08-18T00:23:58;7.63;;;6.07;;
17830;SDS011;9040;51.332;12.406;2022-08-18T00:26:25;8.47;;;7.23;;
17830;SDS011;9040;51.332;12.406;2022-08-18T00:28:52;8.33;;;7.00;;
17830;SDS011;9040;51.332;12.406;2022-08-18T00:31:19;11.87;;;6.83;;
17830;SDS011;9040;51.332;12.406;2022-08-18T00:33:46;21.10;;;7.20;;
17830;SDS011;9040;51.332;12.406;2022-08-18T00:36:14;7.30;;;6.50;;
17830;SDS011;9040;51.332;12.406;2022-08-18T00:38:41;9.37;;;6.00;;
17830;SDS011;9040;51.332;12.406;2022-08-18T00:41:08;10.80;;;7.23;;
17830;SDS011;9040;51.332;12.406;2022-08-18T00:43:36;9.17;;;7.00;;
17830;SDS011;9040;51.332;12.406;2022-08-18T00:46:06;14.80;;;7.37;;
17830;SDS011;9040;51.332;12.406;2022-08-18T00:48:35;18.43;;;7.40;;
17830;SDS011;9040;51.332;12.406;2022-08-18T00:51:02;9.03;;;6.30;;
17830;SDS011;9040;51.332;12.406;2022-08-18T00:53:37;12.93;;;6.23;;
17830;SDS011;9040;51.332;12.406;2022-08-18T00:56:11;9.73;;;5.87;;
17830;SDS011;9040;51.332;12.406;2022-08-18T00:58:42;8.70;;;6.63;;
17830;SDS011;9040;51.332;12.406;2022-08-18T01:01:13;9.43;;;6.87;;
17830;SDS011;9040;51.332;12.406;2022-08-18T01:03:42;13.27;;;7.37;;
17830;SDS011;9040;51.332;12.406;2022-08-18T01:06:19;13.50;;;6.57;;
17830;SDS011;9040;51.332;12.406;2022-08-18T01:08:53;14.77;;;7.40;;
17830;SDS011;9040;51.332;12.406;2022-08-18T01:11:21;17.53;;;6.97;;
17830;SDS011;9040;51.332;12.406;2022-08-18T01:13:48;11.20;;;7.20;;
17830;SDS011;9040;51.332;12.406;2022-08-18T01:16:18;10.47;;;5.90;;
17830;SDS011;9040;51.332;12.406;2022-08-18T01:19:03;9.37;;;6.90;;
17830;SDS011;9040;51.332;12.406;2022-08-18T01:21:50;7.27;;;5.77;;
17830;SDS011;9040;51.332;12.406;2022-08-18T01:24:26;17.53;;;6.87;;
17830;SDS011;9040;51.332;12.406;2022-08-18T01:27:09;11.33;;;7.83;;
17830;SDS011;9040;51.332;12.406;2022-08-18T01:29:39;9.67;;;6.87;;
17830;SDS011;9040;51.332;12.406;2022-08-18T01:32:05;8.40;;;6.90;;
17830;SDS011;9040;51.332;12.406;2022-08-18T01:34:32;10.10;;;6.57;;
17830;SDS011;9040;51.332;12.406;2022-08-18T01:36:59;7.30;;;6.30;;
17830;SDS011;9040;51.332;12.406;2022-08-18T01:39:30;10.33;;;6.20;;
17830;SDS011;9040;51.332;12.406;2022-08-18T01:41:57;10.00;;;5.93;;
17830;SDS011;9040;51.332;12.406;2022-08-18T01:44:25;10.30;;;6.53;;
17830;SDS011;9040;51.332;12.406;2022-08-18T01:46:52;14.40;;;6.10;;
17830;SDS011;9040;51.332;12.406;2022-08-18T01:49:20;7.10;;;5.43;;
17830;SDS011;9040;51.332;12.406;2022-08-18T01:51:47;13.17;;;6.10;;
17830;SDS011;9040;51.332;12.406;2022-08-18T01:54:14;12.83;;;6.40;;
17830;SDS011;9040;51.332;12.406;2022-08-18T01:56:42;10.50;;;7.17;;
17830;SDS011;9040;51.332;12.406;2022-08-18T01:59:10;11.53;;;7.33;;
17830;SDS011;9040;51.332;12.406;2022-08-18T02:01:39;11.37;;;6.50;;
17830;SDS011;9040;51.332;12.406;2022-08-18T02:04:08;8.00;;;7.20;;
17830;SDS011;9040;51.332;12.406;2022-08-18T02:06:36;16.47;;;8.43;;
17830;SDS011;9040;51.332;12.406;2022-08-18T02:09:04;12.57;;;6.67;;
17830;SDS011;9040;51.332;12.406;2022-08-18T02:11:31;7.53;;;6.23;;
17830;SDS011;9040;51.332;12.406;2022-08-18T02:13:59;21.60;;;7.67;;
17830;SDS011;9040;51.332;12.406;2022-08-18T02:16:26;12.30;;;6.90;;
17830;SDS011;9040;51.332;12.406;2022-08-18T02:18:53;10.20;;;6.47;;
17830;SDS011;9040;51.332;12.406;2022-08-18T02:21:20;10.40;;;6.90;;
17830;SDS011;9040;51.332;12.406;2022-08-18T02:23:47;15.03;;;6.43;;
17830;SDS011;9040;51.332;12.406;2022-08-18T02:26:16;11.00;;;6.00;;
17830;SDS011;9040;51.332;12.406;2022-08-18T02:28:43;9.93;;;6.30;;
17830;SDS011;9040;51.332;12.406;2022-08-18T02:31:13;15.63;;;6.30;;
17830;SDS011;9040;51.332;12.406;2022-08-18T02:33:41;14.43;;;7.03;;
17830;SDS011;9040;51.332;12.406;2022-08-18T02:36:08;12.33;;;7.43;;
17830;SDS011;9040;51.332;12.406;2022-08-18T02:38:36;22.73;;;7.00;;
17830;SDS011;9040;51.332;12.406;2022-08-18T02:41:04;17.33;;;7.77;;
17830;SDS011;9040;51.332;12.406;2022-08-18T02:43:33;18.80;;;6.70;;
17830;SDS011;9040;51.332;12.406;2022-08-18T02:46:02;9.10;;;6.77;;
17830;SDS011;9040;51.332;12.406;2022-08-18T02:48:31;10.63;;;6.07;;
17830;SDS011;9040;51.332;12.406;2022-08-18T02:51:00;17.30;;;6.33;;
17830;SDS011;9040;51.332;12.406;2022-08-18T02:53:27;10.10;;;6.27;;
17830;SDS011;9040;51.332;12.406;2022-08-18T02:55:55;6.67;;;5.90;;
17830;SDS011;9040;51.332;12.406;2022-08-18T02:58:31;13.80;;;7.07;;
17830;SDS011;9040;51.332;12.406;2022-08-18T03:00:58;11.23;;;6.40;;
17830;SDS011;9040;51.332;12.406;2022-08-18T03:03:25;12.33;;;6.40;;
17830;SDS011;9040;51.332;12.406;2022-08-18T03:05:53;9.90;;;6.70;;
17830;SDS011;9040;51.332;12.406;2022-08-18T03:08:20;7.00;;;5.83;;
17830;SDS011;9040;51.332;12.406;2022-08-18T03:10:49;11.90;;;5.83;;
17830;SDS011;9040;51.332;12.406;2022-08-18T03:13:17;14.20;;;5.73;;
17830;SDS011;9040;51.332;12.406;2022-08-18T03:15:44;27.47;;;6.20;;
17830;SDS011;9040;51.332;12.406;2022-08-18T03:18:11;12.50;;;7.47;;
17830;SDS011;9040;51.332;12.406;2022-08-18T03:20:38;11.27;;;5.93;;
17830;SDS011;9040;51.332;12.406;2022-08-18T03:23:09;13.00;;;6.80;;
17830;SDS011;9040;51.332;12.406;2022-08-18T03:25:41;9.67;;;6.80;;
17830;SDS011;9040;51.332;12.406;2022-08-18T03:28:10;11.47;;;6.50;;
17830;SDS011;9040;51.332;12.406;2022-08-18T03:30:37;20.87;;;7.00;;
17830;SDS011;9040;51.332;12.406;2022-08-18T03:33:04;17.37;;;5.90;;
17830;SDS011;9040;51.332;12.406;2022-08-18T03:35:33;12.97;;;6.60;;
17830;SDS011;9040;51.332;12.406;2022-08-18T03:38:01;36.20;;;8.47;;
17830;SDS011;9040;51.332;12.406;2022-08-18T03:40:30;15.10;;;6.07;;
17830;SDS011;9040;51.332;12.406;2022-08-18T03:42:57;10.73;;;5.50;;
17830;SDS011;9040;51.332;12.406;2022-08-18T03:45:23;7.93;;;6.10;;
17830;SDS011;9040;51.332;12.406;2022-08-18T03:47:52;16.77;;;5.70;;
17830;SDS011;9040;51.332;12.406;2022-08-18T03:50:20;17.10;;;6.80;;
17830;SDS011;9040;51.332;12.406;2022-08-18T03:52:49;9.67;;;6.50;;
17830;SDS011;9040;51.332;12.406;2022-08-18T03:55:16;18.20;;;6.67;;
17830;SDS011;9040;51.332;12.406;2022-08-18T03:57:45;34.23;;;6.30;;
17830;SDS011;9040;51.332;12.406;2022-08-18T04:00:12;17.23;;;6.73;;
17830;SDS011;9040;51.332;12.406;2022-08-18T04:02:39;9.77;;;6.00;;
17830;SDS011;9040;51.332;12.406;2022-08-18T04:05:07;12.17;;;5.93;;
17830;SDS011;9040;51.332;12.406;2022-08-18T04:07:36;22.93;;;6.37;;
17830;SDS011;9040;51.332;12.406;2022-08-18T04:10:03;28.73;;;7.17;;
17830;SDS011;9040;51.332;12.406;2022-08-18T04:12:31;12.07;;;5.00;;
17830;SDS011;9040;51.332;12.406;2022-08-18T04:14:59;10.37;;;6.60;;
17830;SDS011;9040;51.332;12.406;2022-08-18T04:17:26;10.37;;;5.77;;
17830;SDS011;9040;51.332;12.406;2022-08-18T04:19:54;14.27;;;6.23;;
17830;SDS011;9040;51.332;12.406;2022-08-18T04:22:21;18.57;;;5.90;;
17830;SDS011;9040;51.332;12.406;2022-08-18T04:24:49;17.63;;;8.33;;
17830;SDS011;9040;51.332;12.406;2022-08-18T04:27:16;26.53;;;8.03;;
17830;SDS011;9040;51.332;12.406;2022-08-18T04:29:44;17.33;;;5.53;;
17830;SDS011;9040;51.332;12.406;2022-08-18T04:32:12;22.87;;;7.20;;
17830;SDS011;9040;51.332;12.406;2022-08-18T04:34:39;9.03;;;6.47;;
17830;SDS011;9040;51.332;12.406;2022-08-18T04:37:06;12.23;;;6.07;;
17830;SDS011;9040;51.332;12.406;2022-08-18T04:39:33;17.77;;;5.53;;
17830;SDS011;9040;51.332;12.406;2022-08-18T04:42:01;15.90;;;7.00;;
17830;SDS011;9040;51.332;12.406;2022-08-18T04:44:29;7.27;;;5.07;;
17830;SDS011;9040;51.332;12.406;2022-08-18T04:46:59;7.80;;;5.10;;
17830;SDS011;9040;51.332;12.406;2022-08-18T04:49:45;9.27;;;5.97;;
17830;SDS011;9040;51.332;12.406;2022-08-18T04:52:12;13.83;;;6.43;;
17830;SDS011;9040;51.332;12.406;2022-08-18T04:54:56;9.60;;;6.50;;
17830;SDS011;9040;51.332;12.406;2022-08-18T04:57:25;12.93;;;6.53;;
17830;SDS011;9040;51.332;12.406;2022-08-18T04:59:53;17.67;;;7.03;;
17830;SDS011;9040;51.332;12.406;2022-08-18T05:02:22;15.33;;;5.90;;
17830;SDS011;9040;51.332;12.406;2022-08-18T05:04:51;25.33;;;6.43;;
17830;SDS011;9040;51.332;12.406;2022-08-18T05:07:18;9.50;;;5.40;;
17830;SDS011;9040;51.332;12.406;2022-08-18T05:09:50;26.27;;;8.20;;
17830;SDS011;9040;51.332;12.406;2022-08-18T05:12:18;13.80;;;6.43;;
17830;SDS011;9040;51.332;12.406;2022-08-18T05:14:45;15.00;;;7.20;;
17830;SDS011;9040;51.332;12.406;2022-08-18T05:17:12;17.80;;;6.93;;
17830;SDS011;9040;51.332;12.406;2022-08-18T05:19:40;13.97;;;7.50;;
17830;SDS011;9040;51.332;12.406;2022-08-18T05:22:11;14.03;;;8.87;;
17830;SDS011;9040;51.332;12.406;2022-08-18T05:24:42;15.17;;;6.30;;
17830;SDS011;9040;51.332;12.406;2022-08-18T05:27:08;15.10;;;6.40;;
17830;SDS011;9040;51.332;12.406;2022-08-18T05:29:37;10.30;;;6.70;;
17830;SDS011;9040;51.332;12.406;2022-08-18T05:32:04;11.97;;;6.57;;
17830;SDS011;9040;51.332;12.406;2022-08-18T05:34:32;10.23;;;5.90;;
17830;SDS011;9040;51.332;12.406;2022-08-18T05:37:02;21.60;;;6.97;;
17830;SDS011;9040;51.332;12.406;2022-08-18T05:39:45;14.43;;;8.33;;
17830;SDS011;9040;51.332;12.406;2022-08-18T05:42:20;7.40;;;6.57;;
17830;SDS011;9040;51.332;12.406;2022-08-18T05:44:50;10.53;;;6.77;;
17830;SDS011;9040;51.332;12.406;2022-08-18T05:47:20;14.73;;;8.30;;
17830;SDS011;9040;51.332;12.406;2022-08-18T05:49:50;18.43;;;8.43;;
17830;SDS011;9040;51.332;12.406;2022-08-18T05:52:20;17.03;;;7.67;;
17830;SDS011;9040;51.332;12.406;2022-08-18T05:54:51;11.10;;;7.63;;
17830;SDS011;9040;51.332;12.406;2022-08-18T05:57:42;20.63;;;8.33;;
17830;SDS011;9040;51.332;12.406;2022-08-18T06:00:15;16.53;;;8.30;;
17830;SDS011;9040;51.332;12.406;2022-08-18T06:02:46;14.53;;;8.33;;
17830;SDS011;9040;51.332;12.406;2022-08-18T06:05:19;16.37;;;7.70;;
17830;SDS011;9040;51.332;12.406;2022-08-18T06:07:53;12.30;;;7.07;;
17830;SDS011;9040;51.332;12.406;2022-08-18T06:10:22;10.77;;;7.97;;
17830;SDS011;9040;51.332;12.406;2022-08-18T06:12:50;17.43;;;8.43;;
17830;SDS011;9040;51.332;12.406;2022-08-18T06:15:21;18.57;;;8.80;;
17830;SDS011;9040;51.332;12.406;2022-08-18T06:18:07;19.30;;;8.90;;
17830;SDS011;9040;51.332;12.406;2022-08-18T06:23:46;10.63;;;8.07;;
17830;SDS011;9040;51.332;12.406;2022-08-18T06:26:22;14.70;;;8.67;;
17830;SDS011;9040;51.332;12.406;2022-08-18T06:29:01;17.37;;;7.90;;
17830;SDS011;9040;51.332;12.406;2022-08-18T06:31:36;19.33;;;8.30;;
17830;SDS011;9040;51.332;12.406;2022-08-18T06:34:11;21.07;;;9.07;;
17830;SDS011;9040;51.332;12.406;2022-08-18T06:36:47;9.93;;;8.20;;
17830;SDS011;9040;51.332;12.406;2022-08-18T06:39:21;12.23;;;7.67;;
17830;SDS011;9040;51.332;12.406;2022-08-18T06:41:53;12.67;;;8.50;;
17830;SDS011;9040;51.332;12.406;2022-08-18T06:44:22;18.70;;;8.97;;
17830;SDS011;9040;51.332;12.406;2022-08-18T06:46:57;25.17;;;10.30;;
17830;SDS011;9040;51.332;12.406;2022-08-18T06:49:36;18.20;;;10.00;;
17830;SDS011;9040;51.332;12.406;2022-08-18T06:52:20;15.97;;;9.77;;
17830;SDS011;9040;51.332;12.406;2022-08-18T06:54:50;13.07;;;9.03;;
17830;SDS011;9040;51.332;12.406;2022-08-18T06:57:26;16.13;;;9.30;;
17830;SDS011;9040;51.332;12.406;2022-08-18T06:59:57;18.47;;;11.63;;
17830;SDS011;9040;51.332;12.406;2022-08-18T07:02:30;14.23;;;9.93;;
17830;SDS011;9040;51.332;12.406;2022-08-18T07:05:14;20.10;;;10.97;;
17830;SDS011;9040;51.332;12.406;2022-08-18T07:07:45;17.03;;;10.13;;
17830;SDS011;9040;51.332;12.406;2022-08-18T07:10:30;19.73;;;10.73;;
17830;SDS011;9040;51.332;12.406;2022-08-18T07:13:22;13.63;;;10.17;;
17830;SDS011;9040;51.332;12.406;2022-08-18T07:15:51;20.93;;;10.87;;
17830;SDS011;9040;51.332;12.406;2022-08-18T07:18:21;17.40;;;12.97;;
17830;SDS011;9040;51.332;12.406;2022-08-18T07:20:51;23.10;;;11.40;;
17830;SDS011;9040;51.332;12.406;2022-08-18T07:23:22;18.27;;;12.90;;
17830;SDS011;9040;51.332;12.406;2022-08-18T07:25:57;17.53;;;11.80;;
17830;SDS011;9040;51.332;12.406;2022-08-18T07:28:29;17.90;;;11.57;;
17830;SDS011;9040;51.332;12.406;2022-08-18T07:31:14;13.77;;;12.30;;
17830;SDS011;9040;51.332;12.406;2022-08-18T07:33:47;19.33;;;12.53;;
17830;SDS011;9040;51.332;12.406;2022-08-18T07:36:19;23.37;;;13.03;;
17830;SDS011;9040;51.332;12.406;2022-08-18T07:38:53;17.97;;;13.00;;
17830;SDS011;9040;51.332;12.406;2022-08-18T07:41:29;35.33;;;14.63;;
17830;SDS011;9040;51.332;12.406;2022-08-18T07:44:02;17.73;;;12.70;;
17830;SDS011;9040;51.332;12.406;2022-08-18T07:46:37;24.77;;;15.60;;
17830;SDS011;9040;51.332;12.406;2022-08-18T07:49:09;15.63;;;12.60;;
17830;SDS011;9040;51.332;12.406;2022-08-18T07:51:45;25.83;;;15.53;;
17830;SDS011;9040;51.332;12.406;2022-08-18T07:54:17;29.03;;;14.17;;
17830;SDS011;9040;51.332;12.406;2022-08-18T07:56:55;18.67;;;16.10;;
17830;SDS011;9040;51.332;12.406;2022-08-18T07:59:29;30.67;;;16.37;;
17830;SDS011;9040;51.332;12.406;2022-08-18T08:02:05;52.57;;;15.50;;
17830;SDS011;9040;51.332;12.406;2022-08-18T08:04:46;40.17;;;16.70;;
17830;SDS011;9040;51.332;12.406;2022-08-18T08:07:20;25.40;;;18.30;;
17830;SDS011;9040;51.332;12.406;2022-08-18T08:09:51;21.07;;;17.57;;
17830;SDS011;9040;51.332;12.406;2022-08-18T08:12:26;26.07;;;15.33;;
17830;SDS011;9040;51.332;12.406;2022-08-18T08:15:00;45.90;;;18.80;;
17830;SDS011;9040;51.332;12.406;2022-08-18T08:17:36;22.83;;;16.43;;
17830;SDS011;9040;51.332;12.406;2022-08-18T08:20:13;18.67;;;16.10;;
17830;SDS011;9040;51.332;12.406;2022-08-18T08:22:52;40.70;;;18.97;;
17830;SDS011;9040;51.332;12.406;2022-08-18T08:25:33;20.33;;;16.40;;
17830;SDS011;9040;51.332;12.406;2022-08-18T08:28:11;22.77;;;15.90;;
17830;SDS011;9040;51.332;12.406;2022-08-18T08:30:49;20.50;;;17.47;;
17830;SDS011;9040;51.332;12.406;2022-08-18T08:33:26;30.43;;;18.40;;
17830;SDS011;9040;51.332;12.406;2022-08-18T08:35:57;27.13;;;16.90;;
17830;SDS011;9040;51.332;12.406;2022-08-18T08:38:33;27.23;;;17.97;;
17830;SDS011;9040;51.332;12.406;2022-08-18T08:41:08;29.73;;;17.37;;
17830;SDS011;9040;51.332;12.406;2022-08-18T08:43:39;34.50;;;18.23;;
17830;SDS011;9040;51.332;12.406;2022-08-18T08:46:12;31.33;;;19.43;;
17830;SDS011;9040;51.332;12.406;2022-08-18T08:48:45;23.37;;;17.83;;
17830;SDS011;9040;51.332;12.406;2022-08-18T08:51:23;22.37;;;15.10;;
17830;SDS011;9040;51.332;12.406;2022-08-18T08:53:58;26.57;;;17.77;;
17830;SDS011;9040;51.332;12.406;2022-08-18T08:56:29;25.37;;;18.90;;
17830;SDS011;9040;51.332;12.406;2022-08-18T08:59:04;26.20;;;17.10;;
17830;SDS011;9040;51.332;12.406;2022-08-18T09:01:36;32.43;;;17.93;;
17830;SDS011;9040;51.332;12.406;2022-08-18T09:04:14;26.80;;;16.50;;
17830;SDS011;9040;51.332;12.406;2022-08-18T09:06:49;34.17;;;16.90;;
17830;SDS011;9040;51.332;12.406;2022-08-18T09:09:41;24.10;;;16.00;;
17830;SDS011;9040;51.332;12.406;2022-08-18T09:12:21;33.90;;;20.67;;
17830;SDS011;9040;51.332;12.406;2022-08-18T09:15:06;21.90;;;17.77;;
17830;SDS011;9040;51.332;12.406;2022-08-18T09:20:55;21.20;;;17.47;;
17830;SDS011;9040;51.332;12.406;2022-08-18T09:23:30;32.50;;;18.50;;
17830;SDS011;9040;51.332;12.406;2022-08-18T09:26:20;20.90;;;18.47;;
17830;SDS011;9040;51.332;12.406;2022-08-18T09:28:53;31.13;;;20.20;;
17830;SDS011;9040;51.332;12.406;2022-08-18T09:31:25;25.07;;;18.80;;
17830;SDS011;9040;51.332;12.406;2022-08-18T09:34:06;27.50;;;19.10;;
17830;SDS011;9040;51.332;12.406;2022-08-18T09:36:57;22.43;;;16.80;;
17830;SDS011;9040;51.332;12.406;2022-08-18T09:39:30;30.83;;;18.30;;
17830;SDS011;9040;51.332;12.406;2022-08-18T09:42:25;21.30;;;16.73;;
17830;SDS011;9040;51.332;12.406;2022-08-18T09:44:59;35.83;;;18.80;;
17830;SDS011;9040;51.332;12.406;2022-08-18T09:50:36;26.53;;;18.70;;
17830;SDS011;9040;51.332;12.406;2022-08-18T09:53:32;25.33;;;16.77;;
17830;SDS011;9040;51.332;12.406;2022-08-18T10:05:37;26.17;;;15.17;;
17830;SDS011;9040;51.332;12.406;2022-08-18T10:10:58;20.20;;;16.03;;
17830;SDS011;9040;51.332;12.406;2022-08-18T10:13:45;27.63;;;16.20;;
17830;SDS011;9040;51.332;12.406;2022-08-18T10:16:24;22.00;;;16.20;;
17830;SDS011;9040;51.332;12.406;2022-08-18T10:18:59;21.40;;;15.23;;
17830;SDS011;9040;51.332;12.406;2022-08-18T10:24:34;28.33;;;14.53;;
17830;SDS011;9040;51.332;12.406;2022-08-18T10:27:06;17.50;;;15.70;;
17830;SDS011;9040;51.332;12.406;2022-08-18T10:29:53;32.73;;;14.30;;
17830;SDS011;9040;51.332;12.406;2022-08-18T10:38:24;25.33;;;14.73;;
17830;SDS011;9040;51.332;12.406;2022-08-18T10:40:57;29.17;;;16.63;;
17830;SDS011;9040;51.332;12.406;2022-08-18T10:43:30;24.10;;;17.37;;
17830;SDS011;9040;51.332;12.406;2022-08-18T10:46:05;18.80;;;15.90;;
17830;SDS011;9040;51.332;12.406;2022-08-18T10:48:42;22.60;;;17.70;;
17830;SDS011;9040;51.332;12.406;2022-08-18T10:51:12;25.10;;;18.47;;
17830;SDS011;9040;51.332;12.406;2022-08-18T10:53:46;24.53;;;18.47;;
17830;SDS011;9040;51.332;12.406;2022-08-18T10:56:25;24.70;;;18.33;;
17830;SDS011;9040;51.332;12.406;2022-08-18T10:59:00;25.27;;;18.20;;
17830;SDS011;9040;51.332;12.406;2022-08-18T11:01:44;18.07;;;16.03;;
17830;SDS011;9040;51.332;12.406;2022-08-18T11:04:27;22.73;;;14.90;;
17830;SDS011;9040;51.332;12.406;2022-08-18T11:07:07;31.47;;;17.23;;
17830;SDS011;9040;51.332;12.406;2022-08-18T11:09:36;25.83;;;14.77;;
17830;SDS011;9040;51.332;12.406;2022-08-18T11:12:07;26.23;;;16.30;;
17830;SDS011;9040;51.332;12.406;2022-08-18T11:14:41;19.53;;;14.67;;
17830;SDS011;9040;51.332;12.406;2022-08-18T11:17:34;20.80;;;16.53;;
17830;SDS011;9040;51.332;12.406;2022-08-18T11:20:12;22.13;;;16.20;;
17830;SDS011;9040;51.332;12.406;2022-08-18T11:22:48;28.60;;;17.57;;
17830;SDS011;9040;51.332;12.406;2022-08-18T11:25:19;18.50;;;14.80;;
17830;SDS011;9040;51.332;12.406;2022-08-18T11:27:52;19.33;;;16.80;;
17830;SDS011;9040;51.332;12.406;2022-08-18T11:30:20;24.97;;;15.90;;
17830;SDS011;9040;51.332;12.406;2022-08-18T11:32:53;18.30;;;15.50;;
17830;SDS011;9040;51.332;12.406;2022-08-18T11:35:20;26.50;;;14.77;;
17830;SDS011;9040;51.332;12.406;2022-08-18T11:37:53;23.13;;;13.70;;
17830;SDS011;9040;51.332;12.406;2022-08-18T11:40:31;21.30;;;14.93;;
17830;SDS011;9040;51.332;12.406;2022-08-18T11:43:03;23.70;;;13.80;;
17830;SDS011;9040;51.332;12.406;2022-08-18T11:45:50;27.13;;;13.00;;
17830;SDS011;9040;51.332;12.406;2022-08-18T11:48:20;15.50;;;13.90;;
17830;SDS011;9040;51.332;12.406;2022-08-18T11:50:58;16.50;;;12.50;;
17830;SDS011;9040;51.332;12.406;2022-08-18T11:53:36;18.83;;;11.97;;
17830;SDS011;9040;51.332;12.406;2022-08-18T11:56:13;25.33;;;11.60;;
17830;SDS011;9040;51.332;12.406;2022-08-18T11:58:50;23.33;;;12.80;;
17830;SDS011;9040;51.332;12.406;2022-08-18T12:01:29;16.17;;;11.70;;
17830;SDS011;9040;51.332;12.406;2022-08-18T12:03:58;17.70;;;10.50;;
17830;SDS011;9040;51.332;12.406;2022-08-18T12:06:49;11.20;;;10.03;;
17830;SDS011;9040;51.332;12.406;2022-08-18T12:09:29;24.97;;;11.57;;
17830;SDS011;9040;51.332;12.406;2022-08-18T12:12:00;18.43;;;11.27;;
17830;SDS011;9040;51.332;12.406;2022-08-18T12:14:31;25.90;;;12.97;;
17830;SDS011;9040;51.332;12.406;2022-08-18T12:17:00;20.57;;;11.50;;
17830;SDS011;9040;51.332;12.406;2022-08-18T12:19:29;14.90;;;11.00;;
17830;SDS011;9040;51.332;12.406;2022-08-18T12:21:56;13.80;;;11.60;;
17830;SDS011;9040;51.332;12.406;2022-08-18T12:24:26;23.93;;;12.47;;
17830;SDS011;9040;51.332;12.406;2022-08-18T12:26:55;17.33;;;11.23;;
17830;SDS011;9040;51.332;12.406;2022-08-18T12:29:24;12.87;;;11.27;;
17830;SDS011;9040;51.332;12.406;2022-08-18T12:31:53;25.60;;;10.80;;
17830;SDS011;9040;51.332;12.406;2022-08-18T12:34:21;11.77;;;10.67;;
17830;SDS011;9040;51.332;12.406;2022-08-18T12:36:51;15.83;;;11.03;;
17830;SDS011;9040;51.332;12.406;2022-08-18T12:39:21;18.03;;;11.27;;
17830;SDS011;9040;51.332;12.406;2022-08-18T12:41:49;14.00;;;11.60;;
17830;SDS011;9040;51.332;12.406;2022-08-18T12:44:15;13.00;;;11.70;;
17830;SDS011;9040;51.332;12.406;2022-08-18T12:46:42;24.03;;;13.00;;
17830;SDS011;9040;51.332;12.406;2022-08-18T12:49:13;21.03;;;11.63;;
17830;SDS011;9040;51.332;12.406;2022-08-18T12:51:42;27.73;;;12.90;;
17830;SDS011;9040;51.332;12.406;2022-08-18T12:54:09;19.03;;;13.30;;
17830;SDS011;9040;51.332;12.406;2022-08-18T12:56:36;21.97;;;13.90;;
17830;SDS011;9040;51.332;12.406;2022-08-18T12:59:05;31.90;;;14.00;;
17830;SDS011;9040;51.332;12.406;2022-08-18T13:01:38;27.80;;;14.23;;
17830;SDS011;9040;51.332;12.406;2022-08-18T13:04:06;16.40;;;14.70;;
17830;SDS011;9040;51.332;12.406;2022-08-18T13:06:36;23.43;;;14.50;;
17830;SDS011;9040;51.332;12.406;2022-08-18T13:09:10;17.17;;;15.27;;
17830;SDS011;9040;51.332;12.406;2022-08-18T13:11:37;35.93;;;15.43;;
17830;SDS011;9040;51.332;12.406;2022-08-18T13:14:07;29.23;;;15.83;;
17830;SDS011;9040;51.332;12.406;2022-08-18T13:16:38;23.33;;;15.77;;
17830;SDS011;9040;51.332;12.406;2022-08-18T13:19:09;18.73;;;15.07;;
17830;SDS011;9040;51.332;12.406;2022-08-18T13:21:41;29.33;;;15.40;;
17830;SDS011;9040;51.332;12.406;2022-08-18T13:24:12;22.83;;;15.03;;
17830;SDS011;9040;51.332;12.406;2022-08-18T13:26:42;28.43;;;16.07;;
17830;SDS011;9040;51.332;12.406;2022-08-18T13:29:11;25.20;;;16.13;;
17830;SDS011;9040;51.332;12.406;2022-08-18T13:31:39;18.13;;;16.30;;
17830;SDS011;9040;51.332;12.406;2022-08-18T13:34:06;24.03;;;15.50;;
17830;SDS011;9040;51.332;12.406;2022-08-18T13:36:33;26.33;;;15.83;;
17830;SDS011;9040;51.332;12.406;2022-08-18T13:39:11;33.93;;;16.33;;
17830;SDS011;9040;51.332;12.406;2022-08-18T13:41:39;35.10;;;16.37;;
17830;SDS011;9040;51.332;12.406;2022-08-18T13:44:07;18.80;;;15.93;;
17830;SDS011;9040;51.332;12.406;2022-08-18T13:46:35;32.63;;;17.37;;
17830;SDS011;9040;51.332;12.406;2022-08-18T13:49:10;61.77;;;19.20;;
17830;SDS011;9040;51.332;12.406;2022-08-18T13:51:37;35.43;;;16.40;;
17830;SDS011;9040;51.332;12.406;2022-08-18T13:54:05;29.10;;;15.50;;
17830;SDS011;9040;51.332;12.406;2022-08-18T13:56:34;33.93;;;16.17;;
17830;SDS011;9040;51.332;12.406;2022-08-18T13:59:01;24.00;;;15.93;;
17830;SDS011;9040;51.332;12.406;2022-08-18T14:01:30;24.30;;;16.23;;
17830;SDS011;9040;51.332;12.406;2022-08-18T14:03:57;32.63;;;17.00;;
17830;SDS011;9040;51.332;12.406;2022-08-18T14:06:24;28.87;;;14.60;;
17830;SDS011;9040;51.332;12.406;2022-08-18T14:08:52;27.77;;;15.30;;
17830;SDS011;9040;51.332;12.406;2022-08-18T14:11:20;23.93;;;15.97;;
17830;SDS011;9040;51.332;12.406;2022-08-18T14:13:53;26.27;;;14.93;;
17830;SDS011;9040;51.332;12.406;2022-08-18T14:16:21;31.30;;;17.60;;
17830;SDS011;9040;51.332;12.406;2022-08-18T14:18:48;26.30;;;15.10;;
17830;SDS011;9040;51.332;12.406;2022-08-18T14:21:28;25.53;;;14.90;;
17830;SDS011;9040;51.332;12.406;2022-08-18T14:24:11;17.90;;;14.90;;
17830;SDS011;9040;51.332;12.406;2022-08-18T14:26:55;26.63;;;16.00;;
17830;SDS011;9040;51.332;12.406;2022-08-18T14:29:23;36.70;;;16.90;;
17830;SDS011;9040;51.332;12.406;2022-08-18T14:31:50;21.03;;;17.13;;
17830;SDS011;9040;51.332;12.406;2022-08-18T14:34:17;24.97;;;17.37;;
17830;SDS011;9040;51.332;12.406;2022-08-18T14:36:44;21.30;;;16.77;;
17830;SDS011;9040;51.332;12.406;2022-08-18T14:39:11;23.73;;;17.77;;
17830;SDS011;9040;51.332;12.406;2022-08-18T14:41:38;18.73;;;16.77;;
17830;SDS011;9040;51.332;12.406;2022-08-18T14:44:05;26.07;;;17.67;;
17830;SDS011;9040;51.332;12.406;2022-08-18T14:46:33;25.10;;;18.07;;
17830;SDS011;9040;51.332;12.406;2022-08-18T14:49:00;29.33;;;18.20;;
17830;SDS011;9040;51.332;12.406;2022-08-18T14:51:27;36.43;;;18.80;;
17830;SDS011;9040;51.332;12.406;2022-08-18T14:53:54;21.60;;;17.93;;
17830;SDS011;9040;51.332;12.406;2022-08-18T14:56:22;35.83;;;20.27;;
17830;SDS011;9040;51.332;12.406;2022-08-18T14:58:49;26.83;;;17.77;;
17830;SDS011;9040;51.332;12.406;2022-08-18T15:01:16;30.33;;;20.73;;
17830;SDS011;9040;51.332;12.406;2022-08-18T15:03:45;39.77;;;20.17;;
17830;SDS011;9040;51.332;12.406;2022-08-18T15:06:12;23.87;;;19.63;;
17830;SDS011;9040;51.332;12.406;2022-08-18T15:08:39;33.57;;;22.33;;
17830;SDS011;9040;51.332;12.406;2022-08-18T15:11:06;30.43;;;21.27;;
17830;SDS011;9040;51.332;12.406;2022-08-18T15:13:33;25.10;;;22.40;;
17830;SDS011;9040;51.332;12.406;2022-08-18T15:16:01;26.50;;;21.10;;
17830;SDS011;9040;51.332;12.406;2022-08-18T15:18:30;24.67;;;19.90;;
17830;SDS011;9040;51.332;12.406;2022-08-18T15:20:58;25.30;;;21.77;;
17830;SDS011;9040;51.332;12.406;2022-08-18T15:23:43;39.83;;;23.50;;
17830;SDS011;9040;51.332;12.406;2022-08-18T15:26:28;25.10;;;22.10;;